首页
METAR-TAF:

METAR-TAF

机场 :

神戶機場

神户, 日本

纬度: 34-37-58N, 经度: 135-13-26E, 海拔: 7米

当前天气观测

该预报发布于41分钟前的01:00 UTC
风速7节,风向东转东北
温度 19°C
湿度 94%
气压 1012 hPa
能見度: 4500
少量云层高于800英尺
散云层高于2000英尺
多云层高于4000英尺
雨, 轻雾

METAR: RJBE 200100Z 06007KT 4500 RA BR FEW008 SCT020 BKN040 19/18 Q1012

时间: 10:41 (01:41 UTC)


TAF: 丢失

超过4000个机场的气象观测和天气预报(METAR&TAF报告)。

可查询的气象台以黄色和红色小点在地图上表示。

将鼠标移到小点上方,可查看气象台名称。

然后点击查看天气观测和预报。

如需切换地图:点击带黑十字的绿色按钮放大地图;点击带横线的绿色按钮缩小地图;或者点击绿色箭头查看邻近地区的地图。


METAR-TAF: